Terminal Aerodrome Forecast
Issued by NWS Mt. Holly, NJ

Home | Current Version | Previous Version | Text Only | Print | Product List | Glossary On
Versions: 1 2 3 4 5 6 7 8 9 10 11 12 13 14 15
000
FTUS41 KPHI 290101 AAA
TAFACY
TAF AMD
KACY 290101Z 2901/2924 11008KT P6SM SKC
     FM290400 VRB03KT P6SM SKC
      TEMPO 2907/2911 4SM BR SCT005
     FM291500 29008KT P6SM SCT040=

USA.gov is the U.S. government's official web portal to all federal, state and local government web resources and services.